< < Back
Terminal Aerodrome Forecast


Current Version              Previous Versions:   1  2  3  4  5  6  7  8  9  

Terminal Aerodrome Forecast

976
FTUS42 KJAX 261734
TAFJAX
TAF
KJAX 261734Z 2618/2718 07011KT P6SM VCSH SCT030 BKN200
     FM270100 VRB04KT P6SM SCT025 BKN250
     FM271100 VRB03KT 5SM BR SCT020 BKN250
     FM271300 32005KT P6SM SCT025 BKN250=

Latest METAR

037
SAUS80 KWBC 270800
MTRJAX
METAR KJAX 270756Z 29003KT 10SM FEW025 21/21 A2992 RMK AO2 SLP131
T02110211


USA.gov is the U.S. government's official web portal to all federal, state and local government web resources and services.